Etusivu
METAR-TAF:

METAR-TAF

Lentoasemat :

Aransas County Airport

Rockport, Texas, Yhdysvallat

Leveyspiiri: 28-05-01N, Pituuspiiri: 097-02-47W, korkeus merenpinnasta: 7 m

Tämänhetkinen sää

Tämä raportti tehtiin 30 minuuttia sitten, kello 15.53 UTC
Tuuli 22 kn pohjoisesta puuskistuen 28 kn:hen
Lämpötila 12°C
Kosteus 94%
Ilmanpaine 1017 hPa
Näkyvyys: 8.0 km
Pilvistä 900 ft:n korkeudessa
heikkoa sadetta, utua

METAR: KRKP 011553Z AUTO 36022G28KT 5SM -RA BR OVC009 12/11 A3003 RMK AO2 PK WND 01031/1532 RAB13 CIG 007V012 SLP170 P0000 T01170111

Aika: 10:23 (16:23 UTC)


TAF: puuttuu

Säähavainnot ja -ennusteet yli 4000 lentoasemalta (METAR- ja TAF-raportit).

Käytössä olevat sääasemat on merkitty karttaan keltaisilla ja punaisilla pisteillä.

Aseta hiiri pisteen päälle nähdäksesi sääaseman nimen.

Klikkaa sitten nähdäksesi säähavainnot ja -ennusteet.

Kartan vaihtaminen: klikkaa mustalla rastilla varustettuja vihreitä pisteitä, niin voit zoomata sisään; viivalla varustettua vihreää pistettä, niin voit zoomata ulos tai vihreitä nuolia, niin pääset viereisille kartoille.


METAR-TAF: